sensor_id;sensor_type;location;lat;lon;timestamp;P1;durP1;ratioP1;P2;durP2;ratioP2
22871;SDS011;11603;44.910;8.630;2022-09-09T00:02:22;6.70;;;3.47;;
22871;SDS011;11603;44.910;8.630;2022-09-09T00:04:59;8.77;;;4.00;;
22871;SDS011;11603;44.910;8.630;2022-09-09T00:13:22;10.30;;;4.25;;
22871;SDS011;11603;44.910;8.630;2022-09-09T00:21:33;9.35;;;4.20;;
22871;SDS011;11603;44.910;8.630;2022-09-09T00:24:04;8.23;;;3.28;;
22871;SDS011;11603;44.910;8.630;2022-09-09T00:26:43;7.55;;;3.20;;
22871;SDS011;11603;44.910;8.630;2022-09-09T00:29:23;7.05;;;3.50;;
22871;SDS011;11603;44.910;8.630;2022-09-09T00:31:56;7.65;;;3.17;;
22871;SDS011;11603;44.910;8.630;2022-09-09T00:34:29;12.50;;;3.45;;
22871;SDS011;11603;44.910;8.630;2022-09-09T00:36:57;12.07;;;3.65;;
22871;SDS011;11603;44.910;8.630;2022-09-09T00:42:20;7.35;;;2.95;;
22871;SDS011;11603;44.910;8.630;2022-09-09T00:50:03;6.53;;;2.85;;
22871;SDS011;11603;44.910;8.630;2022-09-09T00:52:39;6.25;;;2.80;;
22871;SDS011;11603;44.910;8.630;2022-09-09T00:55:25;6.57;;;3.33;;
22871;SDS011;11603;44.910;8.630;2022-09-09T00:57:53;7.75;;;3.15;;
22871;SDS011;11603;44.910;8.630;2022-09-09T01:00:25;8.32;;;2.72;;
22871;SDS011;11603;44.910;8.630;2022-09-09T01:02:59;5.28;;;2.88;;
22871;SDS011;11603;44.910;8.630;2022-09-09T01:08:46;5.85;;;2.83;;
22871;SDS011;11603;44.910;8.630;2022-09-09T01:11:23;6.85;;;2.60;;
22871;SDS011;11603;44.910;8.630;2022-09-09T01:13:55;8.05;;;2.78;;
22871;SDS011;11603;44.910;8.630;2022-09-09T01:16:29;6.20;;;2.35;;
22871;SDS011;11603;44.910;8.630;2022-09-09T01:18:56;9.98;;;2.63;;
22871;SDS011;11603;44.910;8.630;2022-09-09T01:21:36;7.85;;;2.83;;
22871;SDS011;11603;44.910;8.630;2022-09-09T01:24:26;5.95;;;2.78;;
22871;SDS011;11603;44.910;8.630;2022-09-09T01:27:09;7.60;;;2.97;;
22871;SDS011;11603;44.910;8.630;2022-09-09T01:29:36;7.28;;;2.90;;
22871;SDS011;11603;44.910;8.630;2022-09-09T01:32:03;10.32;;;2.53;;
22871;SDS011;11603;44.910;8.630;2022-09-09T01:35:10;7.32;;;3.08;;
22871;SDS011;11603;44.910;8.630;2022-09-09T01:37:40;6.60;;;2.47;;
22871;SDS011;11603;44.910;8.630;2022-09-09T01:40:07;10.43;;;2.75;;
22871;SDS011;11603;44.910;8.630;2022-09-09T01:42:34;6.10;;;2.58;;
22871;SDS011;11603;44.910;8.630;2022-09-09T01:44:59;8.77;;;3.03;;
22871;SDS011;11603;44.910;8.630;2022-09-09T01:47:25;5.72;;;2.60;;
22871;SDS011;11603;44.910;8.630;2022-09-09T01:50:04;5.45;;;2.63;;
22871;SDS011;11603;44.910;8.630;2022-09-09T01:52:32;8.07;;;2.35;;
22871;SDS011;11603;44.910;8.630;2022-09-09T01:55:01;6.43;;;2.53;;
22871;SDS011;11603;44.910;8.630;2022-09-09T01:57:38;5.05;;;2.38;;
22871;SDS011;11603;44.910;8.630;2022-09-09T02:00:20;5.88;;;2.17;;
22871;SDS011;11603;44.910;8.630;2022-09-09T02:02:57;6.25;;;2.55;;
22871;SDS011;11603;44.910;8.630;2022-09-09T02:08:18;4.13;;;2.28;;
22871;SDS011;11603;44.910;8.630;2022-09-09T02:13:45;8.75;;;3.70;;
22871;SDS011;11603;44.910;8.630;2022-09-09T02:21:59;7.20;;;3.05;;
22871;SDS011;11603;44.910;8.630;2022-09-09T02:24:27;7.43;;;3.53;;
22871;SDS011;11603;44.910;8.630;2022-09-09T02:27:08;7.07;;;3.50;;
22871;SDS011;11603;44.910;8.630;2022-09-09T02:29:36;7.47;;;3.25;;
22871;SDS011;11603;44.910;8.630;2022-09-09T02:32:08;8.73;;;2.83;;
22871;SDS011;11603;44.910;8.630;2022-09-09T02:34:39;8.02;;;2.97;;
22871;SDS011;11603;44.910;8.630;2022-09-09T02:37:08;6.35;;;2.75;;
22871;SDS011;11603;44.910;8.630;2022-09-09T02:39:37;6.07;;;2.80;;
22871;SDS011;11603;44.910;8.630;2022-09-09T02:42:05;3.38;;;2.55;;
22871;SDS011;11603;44.910;8.630;2022-09-09T02:44:32;6.40;;;2.80;;
22871;SDS011;11603;44.910;8.630;2022-09-09T02:52:54;9.75;;;3.08;;
22871;SDS011;11603;44.910;8.630;2022-09-09T02:55:38;5.10;;;3.10;;
22871;SDS011;11603;44.910;8.630;2022-09-09T02:58:07;6.28;;;2.70;;
22871;SDS011;11603;44.910;8.630;2022-09-09T03:00:37;8.18;;;3.00;;
22871;SDS011;11603;44.910;8.630;2022-09-09T03:03:06;8.70;;;3.30;;
22871;SDS011;11603;44.910;8.630;2022-09-09T03:05:34;7.05;;;3.30;;
22871;SDS011;11603;44.910;8.630;2022-09-09T03:08:01;6.25;;;3.55;;
22871;SDS011;11603;44.910;8.630;2022-09-09T03:10:28;8.55;;;3.20;;
22871;SDS011;11603;44.910;8.630;2022-09-09T03:12:53;12.23;;;3.70;;
22871;SDS011;11603;44.910;8.630;2022-09-09T03:15:21;8.02;;;3.50;;
22871;SDS011;11603;44.910;8.630;2022-09-09T03:17:46;8.82;;;3.70;;
22871;SDS011;11603;44.910;8.630;2022-09-09T03:20:12;4.63;;;3.20;;
22871;SDS011;11603;44.910;8.630;2022-09-09T03:22:38;6.85;;;3.55;;
22871;SDS011;11603;44.910;8.630;2022-09-09T03:25:04;8.85;;;4.20;;
22871;SDS011;11603;44.910;8.630;2022-09-09T03:27:32;8.43;;;4.18;;
22871;SDS011;11603;44.910;8.630;2022-09-09T03:29:58;8.07;;;4.65;;
22871;SDS011;11603;44.910;8.630;2022-09-09T03:32:24;8.77;;;4.85;;
22871;SDS011;11603;44.910;8.630;2022-09-09T03:34:52;11.15;;;4.43;;
22871;SDS011;11603;44.910;8.630;2022-09-09T03:37:18;6.85;;;4.10;;
22871;SDS011;11603;44.910;8.630;2022-09-09T03:39:45;7.00;;;3.85;;
22871;SDS011;11603;44.910;8.630;2022-09-09T03:42:12;8.75;;;4.30;;
22871;SDS011;11603;44.910;8.630;2022-09-09T03:44:47;5.97;;;3.67;;
22871;SDS011;11603;44.910;8.630;2022-09-09T03:47:20;7.70;;;4.15;;
22871;SDS011;11603;44.910;8.630;2022-09-09T03:49:48;9.10;;;3.97;;
22871;SDS011;11603;44.910;8.630;2022-09-09T03:52:14;8.20;;;3.75;;
22871;SDS011;11603;44.910;8.630;2022-09-09T03:54:40;12.15;;;4.10;;
22871;SDS011;11603;44.910;8.630;2022-09-09T03:57:08;9.77;;;4.43;;
22871;SDS011;11603;44.910;8.630;2022-09-09T03:59:35;12.20;;;5.07;;
22871;SDS011;11603;44.910;8.630;2022-09-09T04:02:02;7.10;;;3.67;;
22871;SDS011;11603;44.910;8.630;2022-09-09T04:04:28;8.20;;;3.55;;
22871;SDS011;11603;44.910;8.630;2022-09-09T04:06:54;11.07;;;4.43;;
22871;SDS011;11603;44.910;8.630;2022-09-09T04:09:20;10.85;;;3.90;;
22871;SDS011;11603;44.910;8.630;2022-09-09T04:11:47;9.05;;;3.78;;
22871;SDS011;11603;44.910;8.630;2022-09-09T04:14:13;9.55;;;4.00;;
22871;SDS011;11603;44.910;8.630;2022-09-09T04:16:39;9.23;;;4.47;;
22871;SDS011;11603;44.910;8.630;2022-09-09T04:19:10;11.50;;;4.15;;
22871;SDS011;11603;44.910;8.630;2022-09-09T04:21:40;7.70;;;4.20;;
22871;SDS011;11603;44.910;8.630;2022-09-09T04:24:07;10.73;;;4.63;;
22871;SDS011;11603;44.910;8.630;2022-09-09T04:26:33;13.43;;;4.82;;
22871;SDS011;11603;44.910;8.630;2022-09-09T04:29:02;10.70;;;5.00;;
22871;SDS011;11603;44.910;8.630;2022-09-09T04:31:28;7.47;;;5.45;;
22871;SDS011;11603;44.910;8.630;2022-09-09T04:33:55;11.43;;;6.78;;
22871;SDS011;11603;44.910;8.630;2022-09-09T04:36:21;16.35;;;8.48;;
22871;SDS011;11603;44.910;8.630;2022-09-09T04:38:49;17.33;;;9.35;;
22871;SDS011;11603;44.910;8.630;2022-09-09T04:41:15;18.70;;;11.18;;
22871;SDS011;11603;44.910;8.630;2022-09-09T04:43:43;14.98;;;11.07;;
22871;SDS011;11603;44.910;8.630;2022-09-09T04:46:09;15.43;;;11.98;;
22871;SDS011;11603;44.910;8.630;2022-09-09T04:48:34;18.40;;;13.45;;
22871;SDS011;11603;44.910;8.630;2022-09-09T04:51:02;19.17;;;15.85;;
22871;SDS011;11603;44.910;8.630;2022-09-09T04:53:31;23.98;;;15.68;;
22871;SDS011;11603;44.910;8.630;2022-09-09T04:56:06;18.35;;;15.10;;
22871;SDS011;11603;44.910;8.630;2022-09-09T04:58:41;24.75;;;16.52;;
22871;SDS011;11603;44.910;8.630;2022-09-09T05:01:09;23.70;;;16.85;;
22871;SDS011;11603;44.910;8.630;2022-09-09T05:03:39;25.45;;;18.73;;
22871;SDS011;11603;44.910;8.630;2022-09-09T05:06:08;21.70;;;18.38;;
22871;SDS011;11603;44.910;8.630;2022-09-09T05:08:36;26.15;;;18.45;;
22871;SDS011;11603;44.910;8.630;2022-09-09T05:11:03;22.95;;;19.13;;
22871;SDS011;11603;44.910;8.630;2022-09-09T05:13:37;28.70;;;19.40;;
22871;SDS011;11603;44.910;8.630;2022-09-09T05:16:03;29.15;;;19.02;;
22871;SDS011;11603;44.910;8.630;2022-09-09T05:18:28;27.02;;;19.75;;
22871;SDS011;11603;44.910;8.630;2022-09-09T05:20:58;29.75;;;19.88;;
22871;SDS011;11603;44.910;8.630;2022-09-09T05:23:26;29.15;;;20.95;;
22871;SDS011;11603;44.910;8.630;2022-09-09T05:25:59;28.63;;;20.70;;
22871;SDS011;11603;44.910;8.630;2022-09-09T05:28:25;29.90;;;20.65;;
22871;SDS011;11603;44.910;8.630;2022-09-09T05:30:59;28.92;;;20.90;;
22871;SDS011;11603;44.910;8.630;2022-09-09T05:33:27;26.77;;;19.98;;
22871;SDS011;11603;44.910;8.630;2022-09-09T05:35:56;21.58;;;19.05;;
22871;SDS011;11603;44.910;8.630;2022-09-09T05:38:23;24.00;;;19.13;;
22871;SDS011;11603;44.910;8.630;2022-09-09T05:40:52;29.00;;;20.05;;
22871;SDS011;11603;44.910;8.630;2022-09-09T05:43:18;29.13;;;21.25;;
22871;SDS011;11603;44.910;8.630;2022-09-09T05:45:46;29.98;;;20.70;;
22871;SDS011;11603;44.910;8.630;2022-09-09T05:48:16;32.13;;;19.55;;
22871;SDS011;11603;44.910;8.630;2022-09-09T05:50:42;28.20;;;18.23;;
22871;SDS011;11603;44.910;8.630;2022-09-09T05:53:08;24.88;;;19.05;;
22871;SDS011;11603;44.910;8.630;2022-09-09T05:55:35;23.85;;;18.95;;
22871;SDS011;11603;44.910;8.630;2022-09-09T05:58:02;29.42;;;20.23;;
22871;SDS011;11603;44.910;8.630;2022-09-09T06:00:27;25.55;;;20.17;;
22871;SDS011;11603;44.910;8.630;2022-09-09T06:02:56;26.38;;;19.67;;
22871;SDS011;11603;44.910;8.630;2022-09-09T06:05:22;28.85;;;20.98;;
22871;SDS011;11603;44.910;8.630;2022-09-09T06:07:51;28.23;;;20.75;;
22871;SDS011;11603;44.910;8.630;2022-09-09T06:10:17;27.95;;;21.45;;
22871;SDS011;11603;44.910;8.630;2022-09-09T06:12:44;29.65;;;21.88;;
22871;SDS011;11603;44.910;8.630;2022-09-09T06:15:10;29.92;;;21.77;;
22871;SDS011;11603;44.910;8.630;2022-09-09T06:17:36;30.30;;;21.95;;
22871;SDS011;11603;44.910;8.630;2022-09-09T06:20:02;29.27;;;21.38;;
22871;SDS011;11603;44.910;8.630;2022-09-09T06:22:29;27.73;;;21.67;;
22871;SDS011;11603;44.910;8.630;2022-09-09T06:24:58;28.15;;;21.38;;
22871;SDS011;11603;44.910;8.630;2022-09-09T06:27:27;33.25;;;21.80;;
22871;SDS011;11603;44.910;8.630;2022-09-09T06:29:53;32.22;;;20.70;;
22871;SDS011;11603;44.910;8.630;2022-09-09T06:32:19;28.25;;;21.73;;
22871;SDS011;11603;44.910;8.630;2022-09-09T06:34:44;30.02;;;20.17;;
22871;SDS011;11603;44.910;8.630;2022-09-09T06:37:10;38.97;;;22.13;;
22871;SDS011;11603;44.910;8.630;2022-09-09T06:39:41;27.85;;;20.80;;
22871;SDS011;11603;44.910;8.630;2022-09-09T06:42:07;27.20;;;21.60;;
22871;SDS011;11603;44.910;8.630;2022-09-09T06:44:49;28.80;;;22.40;;
22871;SDS011;11603;44.910;8.630;2022-09-09T06:47:22;25.88;;;21.75;;
22871;SDS011;11603;44.910;8.630;2022-09-09T06:49:47;30.45;;;23.33;;
22871;SDS011;11603;44.910;8.630;2022-09-09T06:52:13;29.00;;;22.98;;
22871;SDS011;11603;44.910;8.630;2022-09-09T06:54:39;31.00;;;21.52;;
22871;SDS011;11603;44.910;8.630;2022-09-09T06:57:05;26.70;;;20.85;;
22871;SDS011;11603;44.910;8.630;2022-09-09T06:59:33;25.73;;;19.48;;
22871;SDS011;11603;44.910;8.630;2022-09-09T07:01:58;27.52;;;19.45;;
22871;SDS011;11603;44.910;8.630;2022-09-09T07:04:24;24.30;;;17.88;;
22871;SDS011;11603;44.910;8.630;2022-09-09T07:06:50;23.88;;;16.50;;
22871;SDS011;11603;44.910;8.630;2022-09-09T07:09:21;17.90;;;14.68;;
22871;SDS011;11603;44.910;8.630;2022-09-09T07:11:49;26.00;;;16.73;;
22871;SDS011;11603;44.910;8.630;2022-09-09T07:14:20;26.50;;;15.55;;
22871;SDS011;11603;44.910;8.630;2022-09-09T07:16:52;21.50;;;15.13;;
22871;SDS011;11603;44.910;8.630;2022-09-09T07:19:18;21.75;;;14.93;;
22871;SDS011;11603;44.910;8.630;2022-09-09T07:21:46;18.63;;;14.68;;
22871;SDS011;11603;44.910;8.630;2022-09-09T07:24:15;18.38;;;13.40;;
22871;SDS011;11603;44.910;8.630;2022-09-09T07:26:43;20.00;;;13.25;;
22871;SDS011;11603;44.910;8.630;2022-09-09T07:29:10;22.25;;;13.95;;
22871;SDS011;11603;44.910;8.630;2022-09-09T07:31:39;21.02;;;13.45;;
22871;SDS011;11603;44.910;8.630;2022-09-09T07:34:09;17.52;;;12.27;;
22871;SDS011;11603;44.910;8.630;2022-09-09T07:36:36;14.40;;;10.35;;
22871;SDS011;11603;44.910;8.630;2022-09-09T07:39:06;13.32;;;9.05;;
22871;SDS011;11603;44.910;8.630;2022-09-09T07:41:35;10.88;;;6.40;;
22871;SDS011;11603;44.910;8.630;2022-09-09T07:44:07;12.30;;;5.40;;
22871;SDS011;11603;44.910;8.630;2022-09-09T07:46:36;9.13;;;5.13;;
22871;SDS011;11603;44.910;8.630;2022-09-09T07:49:07;8.45;;;5.65;;
22871;SDS011;11603;44.910;8.630;2022-09-09T07:51:34;10.05;;;5.40;;
22871;SDS011;11603;44.910;8.630;2022-09-09T07:54:03;12.27;;;5.70;;
22871;SDS011;11603;44.910;8.630;2022-09-09T07:56:32;14.30;;;5.18;;
22871;SDS011;11603;44.910;8.630;2022-09-09T07:58:58;13.68;;;5.30;;
22871;SDS011;11603;44.910;8.630;2022-09-09T08:01:25;7.43;;;4.35;;
22871;SDS011;11603;44.910;8.630;2022-09-09T08:03:57;9.23;;;5.18;;
22871;SDS011;11603;44.910;8.630;2022-09-09T08:06:25;10.55;;;5.32;;
22871;SDS011;11603;44.910;8.630;2022-09-09T08:08:52;11.68;;;5.47;;
22871;SDS011;11603;44.910;8.630;2022-09-09T08:11:21;8.65;;;5.45;;
22871;SDS011;11603;44.910;8.630;2022-09-09T08:13:50;8.82;;;4.72;;
22871;SDS011;11603;44.910;8.630;2022-09-09T08:16:17;8.70;;;4.60;;
22871;SDS011;11603;44.910;8.630;2022-09-09T08:18:48;13.15;;;4.35;;
22871;SDS011;11603;44.910;8.630;2022-09-09T08:21:18;9.23;;;3.83;;
22871;SDS011;11603;44.910;8.630;2022-09-09T08:23:50;5.70;;;3.17;;
22871;SDS011;11603;44.910;8.630;2022-09-09T08:26:19;5.45;;;3.40;;
22871;SDS011;11603;44.910;8.630;2022-09-09T08:28:48;7.55;;;3.35;;
22871;SDS011;11603;44.910;8.630;2022-09-09T08:31:20;7.97;;;4.03;;
22871;SDS011;11603;44.910;8.630;2022-09-09T08:34:07;9.63;;;3.38;;
22871;SDS011;11603;44.910;8.630;2022-09-09T08:36:35;7.03;;;4.15;;
22871;SDS011;11603;44.910;8.630;2022-09-09T08:39:05;10.18;;;4.60;;
22871;SDS011;11603;44.910;8.630;2022-09-09T08:41:39;6.35;;;3.90;;
22871;SDS011;11603;44.910;8.630;2022-09-09T08:52:21;7.70;;;4.85;;
22871;SDS011;11603;44.910;8.630;2022-09-09T08:58:09;8.63;;;4.75;;
22871;SDS011;11603;44.910;8.630;2022-09-09T09:03:30;8.40;;;5.60;;
22871;SDS011;11603;44.910;8.630;2022-09-09T09:06:24;12.07;;;5.38;;
22871;SDS011;11603;44.910;8.630;2022-09-09T09:11:43;16.60;;;7.03;;
22871;SDS011;11603;44.910;8.630;2022-09-09T09:19:20;12.77;;;6.68;;
22871;SDS011;11603;44.910;8.630;2022-09-09T09:30:18;14.60;;;7.07;;
22871;SDS011;11603;44.910;8.630;2022-09-09T09:32:54;11.98;;;7.65;;
22871;SDS011;11603;44.910;8.630;2022-09-09T09:35:25;13.02;;;8.13;;
22871;SDS011;11603;44.910;8.630;2022-09-09T09:37:50;15.10;;;8.57;;
22871;SDS011;11603;44.910;8.630;2022-09-09T09:40:18;12.73;;;8.63;;
22871;SDS011;11603;44.910;8.630;2022-09-09T09:42:54;10.80;;;7.10;;
22871;SDS011;11603;44.910;8.630;2022-09-09T09:48:23;8.48;;;6.75;;
22871;SDS011;11603;44.910;8.630;2022-09-09T09:50:51;19.33;;;7.20;;
22871;SDS011;11603;44.910;8.630;2022-09-09T09:55:56;12.80;;;6.88;;
22871;SDS011;11603;44.910;8.630;2022-09-09T09:58:26;13.60;;;7.25;;
22871;SDS011;11603;44.910;8.630;2022-09-09T10:00:56;13.07;;;6.78;;
22871;SDS011;11603;44.910;8.630;2022-09-09T10:03:27;12.45;;;6.55;;
22871;SDS011;11603;44.910;8.630;2022-09-09T10:05:55;19.05;;;8.82;;
22871;SDS011;11603;44.910;8.630;2022-09-09T10:08:23;12.32;;;6.50;;
22871;SDS011;11603;44.910;8.630;2022-09-09T10:19:00;9.15;;;6.70;;
22871;SDS011;11603;44.910;8.630;2022-09-09T10:37:59;11.68;;;7.05;;
22871;SDS011;11603;44.910;8.630;2022-09-09T10:40:43;10.45;;;6.13;;
22871;SDS011;11603;44.910;8.630;2022-09-09T10:43:25;9.52;;;6.38;;
22871;SDS011;11603;44.910;8.630;2022-09-09T10:54:21;11.70;;;6.70;;
22871;SDS011;11603;44.910;8.630;2022-09-09T10:56:54;12.10;;;6.78;;
22871;SDS011;11603;44.910;8.630;2022-09-09T10:59:24;10.07;;;6.40;;
22871;SDS011;11603;44.910;8.630;2022-09-09T11:02:02;8.88;;;5.60;;
22871;SDS011;11603;44.910;8.630;2022-09-09T11:04:41;10.55;;;5.75;;
22871;SDS011;11603;44.910;8.630;2022-09-09T11:07:10;10.27;;;5.55;;
22871;SDS011;11603;44.910;8.630;2022-09-09T11:09:41;14.38;;;6.18;;
22871;SDS011;11603;44.910;8.630;2022-09-09T11:12:15;14.32;;;6.78;;
22871;SDS011;11603;44.910;8.630;2022-09-09T11:14:53;10.25;;;5.53;;
22871;SDS011;11603;44.910;8.630;2022-09-09T11:17:26;10.38;;;4.57;;
22871;SDS011;11603;44.910;8.630;2022-09-09T11:20:02;12.07;;;5.05;;
22871;SDS011;11603;44.910;8.630;2022-09-09T11:25:29;7.95;;;5.30;;
22871;SDS011;11603;44.910;8.630;2022-09-09T11:41:50;10.07;;;5.28;;
22871;SDS011;11603;44.910;8.630;2022-09-09T11:44:25;9.18;;;4.22;;
22871;SDS011;11603;44.910;8.630;2022-09-09T11:46:55;6.90;;;4.28;;
22871;SDS011;11603;44.910;8.630;2022-09-09T11:49:27;6.57;;;4.38;;
22871;SDS011;11603;44.910;8.630;2022-09-09T11:51:53;9.02;;;4.40;;
22871;SDS011;11603;44.910;8.630;2022-09-09T11:54:32;8.38;;;4.10;;
22871;SDS011;11603;44.910;8.630;2022-09-09T11:57:23;6.32;;;3.65;;
22871;SDS011;11603;44.910;8.630;2022-09-09T12:00:00;11.25;;;4.07;;
22871;SDS011;11603;44.910;8.630;2022-09-09T12:02:27;4.25;;;3.58;;
22871;SDS011;11603;44.910;8.630;2022-09-09T12:05:04;5.80;;;3.92;;
22871;SDS011;11603;44.910;8.630;2022-09-09T12:07:35;5.75;;;3.00;;
22871;SDS011;11603;44.910;8.630;2022-09-09T12:12:50;7.60;;;3.08;;
22871;SDS011;11603;44.910;8.630;2022-09-09T12:15:21;4.25;;;2.30;;
22871;SDS011;11603;44.910;8.630;2022-09-09T12:17:49;4.97;;;2.75;;
22871;SDS011;11603;44.910;8.630;2022-09-09T12:28:35;4.35;;;2.38;;
22871;SDS011;11603;44.910;8.630;2022-09-09T12:33:42;5.53;;;2.22;;
22871;SDS011;11603;44.910;8.630;2022-09-09T12:36:14;7.65;;;2.28;;
22871;SDS011;11603;44.910;8.630;2022-09-09T12:38:43;8.00;;;2.00;;
22871;SDS011;11603;44.910;8.630;2022-09-09T12:44:04;6.50;;;2.10;;
22871;SDS011;11603;44.910;8.630;2022-09-09T12:46:44;3.35;;;1.92;;
22871;SDS011;11603;44.910;8.630;2022-09-09T12:52:07;3.30;;;2.00;;
22871;SDS011;11603;44.910;8.630;2022-09-09T12:54:43;2.05;;;1.90;;
22871;SDS011;11603;44.910;8.630;2022-09-09T12:57:16;3.92;;;2.15;;
22871;SDS011;11603;44.910;8.630;2022-09-09T12:59:42;4.35;;;2.33;;
22871;SDS011;11603;44.910;8.630;2022-09-09T13:02:31;3.42;;;2.20;;
22871;SDS011;11603;44.910;8.630;2022-09-09T13:05:05;10.25;;;2.78;;
22871;SDS011;11603;44.910;8.630;2022-09-09T13:07:38;6.88;;;2.05;;
22871;SDS011;11603;44.910;8.630;2022-09-09T13:10:04;3.95;;;2.13;;
22871;SDS011;11603;44.910;8.630;2022-09-09T13:12:29;7.70;;;2.28;;
22871;SDS011;11603;44.910;8.630;2022-09-09T13:14:55;7.82;;;2.20;;
22871;SDS011;11603;44.910;8.630;2022-09-09T13:17:25;7.50;;;2.30;;
22871;SDS011;11603;44.910;8.630;2022-09-09T13:19:56;4.95;;;2.15;;
22871;SDS011;11603;44.910;8.630;2022-09-09T13:27:39;10.15;;;2.22;;
22871;SDS011;11603;44.910;8.630;2022-09-09T13:35:34;4.72;;;2.50;;
22871;SDS011;11603;44.910;8.630;2022-09-09T13:38:12;7.40;;;2.13;;
22871;SDS011;11603;44.910;8.630;2022-09-09T13:40:39;3.70;;;2.20;;
22871;SDS011;11603;44.910;8.630;2022-09-09T13:43:05;7.68;;;2.00;;
22871;SDS011;11603;44.910;8.630;2022-09-09T13:45:52;5.25;;;2.40;;
22871;SDS011;11603;44.910;8.630;2022-09-09T13:48:21;8.18;;;2.03;;
22871;SDS011;11603;44.910;8.630;2022-09-09T13:50:54;4.55;;;1.90;;
22871;SDS011;11603;44.910;8.630;2022-09-09T13:53:21;8.98;;;2.28;;
22871;SDS011;11603;44.910;8.630;2022-09-09T13:55:46;7.70;;;2.00;;
22871;SDS011;11603;44.910;8.630;2022-09-09T13:58:15;8.95;;;2.03;;
22871;SDS011;11603;44.910;8.630;2022-09-09T14:00:43;3.22;;;1.63;;
22871;SDS011;11603;44.910;8.630;2022-09-09T14:03:09;2.83;;;1.60;;
22871;SDS011;11603;44.910;8.630;2022-09-09T14:05:35;3.22;;;1.90;;
22871;SDS011;11603;44.910;8.630;2022-09-09T14:08:02;3.55;;;1.83;;
22871;SDS011;11603;44.910;8.630;2022-09-09T14:10:29;6.47;;;2.00;;
22871;SDS011;11603;44.910;8.630;2022-09-09T14:12:55;5.45;;;1.60;;
22871;SDS011;11603;44.910;8.630;2022-09-09T14:15:21;4.55;;;1.98;;
22871;SDS011;11603;44.910;8.630;2022-09-09T14:17:47;10.95;;;1.58;;
22871;SDS011;11603;44.910;8.630;2022-09-09T14:20:13;5.30;;;2.25;;
22871;SDS011;11603;44.910;8.630;2022-09-09T14:22:40;3.10;;;1.63;;
22871;SDS011;11603;44.910;8.630;2022-09-09T14:25:06;2.90;;;1.67;;
22871;SDS011;11603;44.910;8.630;2022-09-09T14:27:32;15.02;;;1.92;;
22871;SDS011;11603;44.910;8.630;2022-09-09T14:29:58;8.27;;;2.00;;
22871;SDS011;11603;44.910;8.630;2022-09-09T14:32:26;7.05;;;1.80;;
22871;SDS011;11603;44.910;8.630;2022-09-09T14:34:51;4.25;;;1.60;;
22871;SDS011;11603;44.910;8.630;2022-09-09T14:37:17;3.05;;;1.83;;
22871;SDS011;11603;44.910;8.630;2022-09-09T14:39:43;3.13;;;1.85;;
22871;SDS011;11603;44.910;8.630;2022-09-09T14:42:09;6.32;;;3.15;;
22871;SDS011;11603;44.910;8.630;2022-09-09T14:44:38;3.50;;;1.55;;
22871;SDS011;11603;44.910;8.630;2022-09-09T14:47:06;5.07;;;1.27;;
22871;SDS011;11603;44.910;8.630;2022-09-09T14:49:33;7.28;;;1.60;;
22871;SDS011;11603;44.910;8.630;2022-09-09T14:52:03;4.50;;;1.55;;
22871;SDS011;11603;44.910;8.630;2022-09-09T14:54:29;3.97;;;1.40;;
22871;SDS011;11603;44.910;8.630;2022-09-09T14:56:55;8.88;;;1.52;;
22871;SDS011;11603;44.910;8.630;2022-09-09T14:59:22;5.97;;;1.50;;
22871;SDS011;11603;44.910;8.630;2022-09-09T15:01:47;4.00;;;1.50;;
22871;SDS011;11603;44.910;8.630;2022-09-09T15:04:13;4.60;;;1.60;;
22871;SDS011;11603;44.910;8.630;2022-09-09T15:06:42;3.75;;;1.48;;
22871;SDS011;11603;44.910;8.630;2022-09-09T15:09:09;3.75;;;1.65;;
22871;SDS011;11603;44.910;8.630;2022-09-09T15:11:36;3.03;;;1.30;;
22871;SDS011;11603;44.910;8.630;2022-09-09T15:14:03;6.10;;;1.55;;
22871;SDS011;11603;44.910;8.630;2022-09-09T15:16:29;9.13;;;1.65;;
22871;SDS011;11603;44.910;8.630;2022-09-09T15:18:57;3.05;;;1.20;;
22871;SDS011;11603;44.910;8.630;2022-09-09T15:21:27;5.38;;;1.80;;
22871;SDS011;11603;44.910;8.630;2022-09-09T15:23:55;2.95;;;1.52;;
22871;SDS011;11603;44.910;8.630;2022-09-09T15:26:21;4.60;;;1.27;;
22871;SDS011;11603;44.910;8.630;2022-09-09T15:28:48;6.43;;;1.30;;
22871;SDS011;11603;44.910;8.630;2022-09-09T15:31:18;5.72;;;1.40;;
22871;SDS011;11603;44.910;8.630;2022-09-09T15:33:48;3.67;;;1.25;;
22871;SDS011;11603;44.910;8.630;2022-09-09T15:36:21;5.60;;;1.63;;
22871;SDS011;11603;44.910;8.630;2022-09-09T15:38:48;6.75;;;1.30;;
22871;SDS011;11603;44.910;8.630;2022-09-09T15:41:15;4.57;;;1.45;;
22871;SDS011;11603;44.910;8.630;2022-09-09T15:43:44;6.28;;;1.65;;
22871;SDS011;11603;44.910;8.630;2022-09-09T15:48:43;9.75;;;1.80;;
22871;SDS011;11603;44.910;8.630;2022-09-09T15:51:09;4.07;;;1.42;;
22871;SDS011;11603;44.910;8.630;2022-09-09T15:53:38;5.22;;;1.67;;
22871;SDS011;11603;44.910;8.630;2022-09-09T15:56:07;7.07;;;1.60;;
22871;SDS011;11603;44.910;8.630;2022-09-09T15:58:33;4.03;;;1.65;;
22871;SDS011;11603;44.910;8.630;2022-09-09T16:01:01;4.63;;;1.40;;
22871;SDS011;11603;44.910;8.630;2022-09-09T16:03:29;4.22;;;1.35;;
22871;SDS011;11603;44.910;8.630;2022-09-09T16:05:58;2.28;;;1.30;;
22871;SDS011;11603;44.910;8.630;2022-09-09T16:08:25;3.38;;;1.55;;
22871;SDS011;11603;44.910;8.630;2022-09-09T16:10:56;4.75;;;1.90;;
22871;SDS011;11603;44.910;8.630;2022-09-09T16:13:21;4.50;;;1.38;;
22871;SDS011;11603;44.910;8.630;2022-09-09T16:15:53;4.55;;;1.67;;
22871;SDS011;11603;44.910;8.630;2022-09-09T16:18:20;1.95;;;1.30;;
22871;SDS011;11603;44.910;8.630;2022-09-09T16:20:53;2.45;;;1.33;;
22871;SDS011;11603;44.910;8.630;2022-09-09T16:23:19;3.70;;;1.60;;
22871;SDS011;11603;44.910;8.630;2022-09-09T16:25:52;2.75;;;1.30;;
22871;SDS011;11603;44.910;8.630;2022-09-09T16:28:19;4.47;;;1.60;;
22871;SDS011;11603;44.910;8.630;2022-09-09T16:30:44;5.70;;;1.30;;
22871;SDS011;11603;44.910;8.630;2022-09-09T16:33:10;6.85;;;1.67;;
22871;SDS011;11603;44.910;8.630;2022-09-09T16:35:36;5.72;;;1.63;;
22871;SDS011;11603;44.910;8.630;2022-09-09T16:38:03;6.65;;;1.70;;
22871;SDS011;11603;44.910;8.630;2022-09-09T16:40:29;3.83;;;1.50;;
22871;SDS011;11603;44.910;8.630;2022-09-09T16:42:55;4.35;;;1.35;;
22871;SDS011;11603;44.910;8.630;2022-09-09T16:45:20;6.10;;;1.88;;
22871;SDS011;11603;44.910;8.630;2022-09-09T16:47:48;8.57;;;1.90;;
22871;SDS011;11603;44.910;8.630;2022-09-09T16:50:13;6.63;;;2.95;;
22871;SDS011;11603;44.910;8.630;2022-09-09T16:52:39;7.50;;;2.50;;
22871;SDS011;11603;44.910;8.630;2022-09-09T16:55:05;5.70;;;2.03;;
22871;SDS011;11603;44.910;8.630;2022-09-09T16:57:30;5.85;;;2.00;;
22871;SDS011;11603;44.910;8.630;2022-09-09T16:59:56;4.90;;;1.73;;
22871;SDS011;11603;44.910;8.630;2022-09-09T17:02:24;3.53;;;1.50;;
22871;SDS011;11603;44.910;8.630;2022-09-09T17:04:50;4.78;;;1.90;;
22871;SDS011;11603;44.910;8.630;2022-09-09T17:07:16;5.72;;;1.88;;
22871;SDS011;11603;44.910;8.630;2022-09-09T17:09:41;4.85;;;1.88;;
22871;SDS011;11603;44.910;8.630;2022-09-09T17:12:07;3.65;;;1.85;;
22871;SDS011;11603;44.910;8.630;2022-09-09T17:14:33;3.25;;;1.98;;
22871;SDS011;11603;44.910;8.630;2022-09-09T17:16:59;2.65;;;1.50;;
22871;SDS011;11603;44.910;8.630;2022-09-09T17:19:25;3.75;;;1.92;;
22871;SDS011;11603;44.910;8.630;2022-09-09T17:21:51;8.27;;;1.85;;
22871;SDS011;11603;44.910;8.630;2022-09-09T17:24:17;6.88;;;1.98;;
22871;SDS011;11603;44.910;8.630;2022-09-09T17:26:42;9.15;;;2.95;;
22871;SDS011;11603;44.910;8.630;2022-09-09T17:29:09;7.28;;;2.78;;
22871;SDS011;11603;44.910;8.630;2022-09-09T17:31:36;7.60;;;2.28;;
22871;SDS011;11603;44.910;8.630;2022-09-09T17:34:01;7.00;;;2.65;;